createdAt,value
2023-02-03T00:01:38.770Z,100409.16
2023-02-03T00:29:31.715Z,100426.22
2023-02-03T00:32:08.292Z,100448.66
2023-02-03T00:34:41.033Z,100443.56
2023-02-03T00:37:10.035Z,100433.00
2023-02-03T00:39:40.036Z,100437.03
2023-02-03T00:42:11.927Z,100448.97
2023-02-03T00:44:42.699Z,100437.41
2023-02-03T00:47:19.187Z,100440.97
2023-02-03T00:49:47.643Z,100446.00
2023-02-03T00:52:16.817Z,100434.97
2023-02-03T00:54:50.130Z,100447.25
2023-02-03T00:57:21.581Z,100448.50
2023-02-03T01:00:02.185Z,100423.28
2023-02-03T01:02:34.280Z,100427.94
2023-02-03T01:05:04.861Z,100433.97
2023-02-03T01:07:36.069Z,100426.00
2023-02-03T01:10:12.460Z,100430.34
2023-02-03T01:12:43.680Z,100415.47
2023-02-03T01:15:18.399Z,100418.78
2023-02-03T01:17:47.863Z,100427.94
2023-02-03T01:20:26.820Z,100425.78
2023-02-03T01:22:56.243Z,100405.78
2023-02-03T01:25:26.737Z,100424.41
2023-02-03T01:28:08.059Z,100396.06
2023-02-03T01:30:53.287Z,100409.63
2023-02-03T01:33:32.520Z,100402.56
2023-02-03T01:36:14.845Z,100404.19
2023-02-03T01:38:46.478Z,100414.72
2023-02-03T01:41:21.160Z,100387.66
2023-02-03T01:43:53.149Z,100389.16
2023-02-03T01:46:40.124Z,100383.63
2023-02-03T01:49:19.560Z,100391.00
2023-02-03T01:51:49.090Z,100388.13
2023-02-03T02:07:20.849Z,100371.31
2023-02-03T02:09:52.698Z,100366.78
2023-02-03T02:12:22.421Z,100375.69
2023-02-03T02:15:01.353Z,100356.88
2023-02-03T02:17:41.644Z,100357.22
2023-02-03T02:20:38.589Z,100362.84
2023-02-03T02:23:43.348Z,100344.88
2023-02-03T02:26:43.427Z,100345.59
2023-02-03T02:29:53.910Z,100341.75
2023-02-03T02:32:40.192Z,100337.03
2023-02-03T02:35:24.821Z,100326.63
2023-02-03T03:27:00.123Z,100297.34
2023-02-03T03:29:35.549Z,100298.91
2023-02-03T03:32:04.257Z,100303.41
2023-02-03T03:34:36.400Z,100290.75
2023-02-03T03:37:11.526Z,100293.94
2023-02-03T03:39:47.253Z,100286.88
2023-02-03T03:42:27.384Z,100289.38
2023-02-03T03:45:03.315Z,100280.53
2023-02-03T03:47:36.697Z,100281.91
2023-02-03T03:50:10.274Z,100289.03
2023-02-03T03:52:47.605Z,100289.06
2023-02-03T03:55:19.104Z,100286.50
2023-02-03T03:58:00.282Z,100296.34
2023-02-03T04:00:33.250Z,100295.28
2023-02-03T04:03:06.493Z,100299.28
2023-02-03T04:05:41.664Z,100323.22
2023-02-03T04:08:10.120Z,100306.16
2023-02-03T04:10:41.131Z,100290.97
2023-02-03T04:13:19.971Z,100278.81
2023-02-03T04:15:51.834Z,100264.06
2023-02-03T04:18:28.871Z,100261.69
2023-02-03T04:21:05.427Z,100259.38
2023-02-03T04:23:36.424Z,100271.06
2023-02-03T04:26:16.304Z,100257.84
2023-02-03T04:29:00.432Z,100247.88
2023-02-03T04:31:32.413Z,100244.28
2023-02-03T04:34:03.663Z,100238.94
2023-02-03T04:36:34.067Z,100229.75
2023-02-03T04:39:05.607Z,100236.41
2023-02-03T04:41:41.511Z,100243.91
2023-02-03T04:44:24.590Z,100239.78
2023-02-03T04:46:53.515Z,100236.97
2023-02-03T04:49:25.303Z,100225.03
2023-02-03T04:52:07.771Z,100238.03
2023-02-03T04:54:38.636Z,100216.44
2023-02-03T04:57:15.659Z,100207.97
2023-02-03T04:59:45.565Z,100226.19
2023-02-03T05:02:15.268Z,100206.44
2023-02-03T05:04:43.913Z,100212.66
2023-02-03T05:07:16.232Z,100200.03
2023-02-03T05:09:48.575Z,100217.25
2023-02-03T05:12:20.194Z,100209.78
2023-02-03T05:14:50.599Z,100207.38
2023-02-03T05:17:19.702Z,100205.72
2023-02-03T05:20:01.127Z,100199.66
2023-02-03T05:22:42.020Z,100192.34
2023-02-03T05:25:14.202Z,100201.06
2023-02-03T05:27:43.678Z,100185.72
2023-02-03T05:30:18.806Z,100180.34
2023-02-03T05:32:48.466Z,100177.22
2023-02-03T05:35:28.065Z,100175.00
2023-02-03T05:38:00.046Z,100175.25
2023-02-03T05:40:47.364Z,100173.13
2023-02-03T05:43:16.570Z,100169.88
2023-02-03T05:45:51.018Z,100154.53
2023-02-03T05:48:20.720Z,100147.97
2023-02-03T05:50:53.672Z,100162.47
2023-02-03T05:53:23.385Z,100152.72
2023-02-03T05:55:54.989Z,100150.25
2023-02-03T05:58:26.624Z,100152.16
2023-02-03T06:00:59.129Z,100133.59
2023-02-03T06:03:30.668Z,100138.53
2023-02-03T06:06:08.950Z,100136.81
2023-02-03T06:08:40.611Z,100171.91
2023-02-03T06:11:11.924Z,100141.72
2023-02-03T06:13:43.476Z,100138.66
2023-02-03T06:16:14.649Z,100123.03
2023-02-03T06:18:43.230Z,100129.13
2023-02-03T06:21:14.687Z,100144.09
2023-02-03T06:23:43.963Z,100121.81
2023-02-03T06:26:15.506Z,100129.88
2023-02-03T06:28:51.892Z,100125.53
2023-02-03T06:31:23.989Z,100095.94
2023-02-03T06:33:57.206Z,100112.38
2023-02-03T06:36:26.087Z,100110.66
2023-02-03T06:38:56.059Z,100108.66
2023-02-03T06:41:28.699Z,100117.00
2023-02-03T06:43:56.734Z,100102.84
2023-02-03T06:46:30.125Z,100093.03
2023-02-03T06:48:59.486Z,100087.50
2023-02-03T06:51:31.142Z,100090.59
2023-02-03T06:54:03.573Z,100112.88
2023-02-03T06:56:37.547Z,100075.88
2023-02-03T06:59:09.600Z,100087.41
2023-02-03T07:01:42.882Z,100077.78
2023-02-03T07:04:11.384Z,100096.47
2023-02-03T07:06:40.169Z,100073.16
2023-02-03T07:09:11.378Z,100103.94
2023-02-03T07:11:46.364Z,100109.69
2023-02-03T07:14:24.568Z,100070.81
2023-02-03T07:17:01.887Z,100096.66
2023-02-03T07:19:35.916Z,100075.72
2023-02-03T07:22:07.399Z,100075.91
2023-02-03T07:24:36.994Z,100090.34
2023-02-03T07:27:07.344Z,100087.16
2023-02-03T07:29:37.910Z,100063.91
2023-02-03T07:32:10.540Z,100060.13
2023-02-03T07:34:39.724Z,100089.50
2023-02-03T07:37:10.749Z,100076.56
2023-02-03T07:39:48.895Z,100068.63
2023-02-03T07:42:19.744Z,100058.06
2023-02-03T07:45:01.170Z,100062.88
2023-02-03T07:47:42.504Z,100064.13
2023-02-03T07:50:22.883Z,100063.72
2023-02-03T07:52:56.505Z,100060.22
2023-02-03T07:55:28.295Z,100042.28
2023-02-03T07:58:03.344Z,100066.66
2023-02-03T08:00:35.533Z,100067.75
2023-02-03T08:03:06.033Z,100031.41
2023-02-03T08:05:35.491Z,100063.69
2023-02-03T08:08:07.917Z,100065.13
2023-02-03T08:10:37.650Z,100097.78
2023-02-03T08:13:06.267Z,100062.47
2023-02-03T08:15:35.778Z,100056.56
2023-02-03T08:18:09.748Z,100046.25
2023-02-03T08:20:48.384Z,100024.72
2023-02-03T08:23:18.153Z,100025.22
2023-02-03T08:25:49.852Z,100012.72
2023-02-03T08:28:20.661Z,100031.97
2023-02-03T08:30:50.342Z,100043.00
2023-02-03T08:36:17.134Z,100020.78
2023-02-03T08:38:49.869Z,99960.22
2023-02-03T08:41:22.368Z,99960.66
2023-02-03T08:43:53.517Z,99962.09
2023-02-03T08:46:29.234Z,99944.22
2023-02-03T08:49:04.783Z,99981.78
2023-02-03T08:51:34.336Z,99983.47
2023-02-03T08:54:03.493Z,99955.97
2023-02-03T08:56:35.776Z,99942.63
2023-02-03T08:59:09.968Z,99947.94
2023-02-03T09:01:40.969Z,99967.44
2023-02-03T09:04:24.733Z,99934.28
2023-02-03T09:06:54.534Z,99947.41
2023-02-03T09:09:26.491Z,99931.63
2023-02-03T09:12:02.543Z,99919.66
2023-02-03T09:14:37.178Z,99934.06
2023-02-03T09:17:11.429Z,99916.38
2023-02-03T09:19:51.763Z,99927.09
2023-02-03T09:22:21.448Z,99939.38
2023-02-03T09:24:55.599Z,99944.47
2023-02-03T09:27:27.155Z,99936.59
2023-02-03T09:30:01.273Z,99945.53
2023-02-03T09:32:34.067Z,99922.47
2023-02-03T09:35:11.519Z,99918.03
2023-02-03T09:37:41.932Z,99916.66
2023-02-03T09:40:12.258Z,99884.94
2023-02-03T09:43:06.239Z,99927.66
2023-02-03T09:45:37.611Z,99943.78
2023-02-03T09:48:14.685Z,99888.63
2023-02-03T09:50:50.792Z,99900.25
2023-02-03T09:53:31.597Z,99914.47
2023-02-03T09:56:01.879Z,99879.66
2023-02-03T09:58:36.394Z,99857.38
2023-02-03T10:01:17.253Z,99836.56
2023-02-03T10:03:59.338Z,99841.41
2023-02-03T10:06:45.342Z,99869.34
2023-02-03T10:09:40.329Z,99863.34
2023-02-03T10:12:59.358Z,99907.94
2023-02-03T10:18:47.728Z,99882.78
2023-02-03T10:21:31.957Z,99851.00
2023-02-03T10:24:19.891Z,99833.28
2023-02-03T10:26:50.202Z,99844.66
2023-02-03T10:29:22.980Z,99851.94
2023-02-03T10:31:52.394Z,99832.03
2023-02-03T10:34:23.724Z,99825.53
2023-02-03T10:37:02.364Z,99896.34
2023-02-03T10:39:42.892Z,99812.25
2023-02-03T10:42:22.207Z,99812.50
2023-02-03T10:44:57.170Z,99822.28
2023-02-03T10:47:29.211Z,99792.75
2023-02-03T10:50:01.779Z,99818.88
2023-02-03T10:52:34.408Z,99776.34
2023-02-03T10:55:16.619Z,99787.47
2023-02-03T10:57:49.104Z,99759.09
2023-02-03T11:00:28.459Z,99786.50
2023-02-03T11:03:07.350Z,99757.81
2023-02-03T11:05:36.681Z,99807.50
2023-02-03T11:08:10.018Z,99785.00
2023-02-03T11:10:43.381Z,99776.13
2023-02-03T11:13:25.370Z,99767.59
2023-02-03T11:15:57.359Z,99778.94
2023-02-03T11:19:11.234Z,99758.69
2023-02-03T11:21:48.019Z,99769.94
2023-02-03T11:24:22.298Z,99759.31
2023-02-03T11:27:04.203Z,99751.94
2023-02-03T11:29:34.498Z,99751.81
2023-02-03T11:32:05.931Z,99737.81
2023-02-03T11:34:46.562Z,99769.66
2023-02-03T11:37:33.889Z,99733.19
2023-02-03T11:40:29.614Z,99721.38
2023-02-03T11:43:21.721Z,99720.63
2023-02-03T11:45:54.898Z,99706.19
2023-02-03T11:48:34.348Z,99733.31
2023-02-03T11:51:13.844Z,99687.97
2023-02-03T11:54:03.946Z,99673.28
2023-02-03T11:56:44.673Z,99659.88
2023-02-03T11:59:53.806Z,99664.69
2023-02-03T12:02:57.951Z,99627.91
2023-02-03T12:05:54.476Z,99604.88
2023-02-03T12:08:37.831Z,99607.19
2023-02-03T12:11:19.552Z,99600.53
2023-02-03T12:14:33.053Z,99596.78
2023-02-03T12:17:56.508Z,99572.81
2023-02-03T12:20:49.417Z,99583.66
2023-02-03T12:23:53.587Z,99588.94
2023-02-03T12:26:28.662Z,99552.69
2023-02-03T12:29:06.837Z,99541.34
2023-02-03T12:31:42.589Z,99588.34
2023-02-03T12:34:22.247Z,99503.13
2023-02-03T12:36:57.951Z,99548.81
2023-02-03T12:39:30.830Z,99469.81
2023-02-03T12:42:02.819Z,99486.22
2023-02-03T12:44:35.780Z,99502.63
2023-02-03T12:47:11.262Z,99573.78
2023-02-03T12:49:45.700Z,99496.84
2023-02-03T12:52:27.244Z,99479.13
2023-02-03T12:55:05.304Z,99462.72
2023-02-03T12:57:40.274Z,99458.03
2023-02-03T13:00:29.488Z,99449.34
2023-02-03T13:03:10.592Z,99522.06
2023-02-03T13:05:58.554Z,99438.41
2023-02-03T13:08:34.386Z,99460.06
2023-02-03T13:11:26.259Z,99397.03
2023-02-03T13:13:58.460Z,99417.19
2023-02-03T13:16:44.074Z,99428.97
2023-02-03T13:19:20.669Z,99440.06
2023-02-03T13:21:51.487Z,99415.72
2023-02-03T13:24:30.103Z,99376.53
2023-02-03T13:27:22.013Z,99449.59
2023-02-03T13:30:00.365Z,99372.97
2023-02-03T13:32:44.760Z,99424.22
2023-02-03T13:35:33.879Z,99348.28
2023-02-03T13:38:31.595Z,99364.44
2023-02-03T13:41:09.479Z,99388.44
2023-02-03T13:43:42.658Z,99365.44
2023-02-03T13:46:23.313Z,99394.84
2023-02-03T13:48:53.686Z,99396.28
2023-02-03T13:51:25.280Z,99406.78
2023-02-03T13:54:11.779Z,99383.03
2023-02-03T13:56:47.682Z,99428.50
2023-02-03T13:59:37.251Z,99381.97
2023-02-03T14:02:43.203Z,99390.34
2023-02-03T14:05:50.733Z,99588.03
2023-02-03T14:08:49.997Z,99407.94
2023-02-03T14:11:58.763Z,99426.16
2023-02-03T14:14:46.741Z,99512.75
2023-02-03T14:17:55.474Z,99427.72
2023-02-03T14:21:09.252Z,99413.13
2023-02-03T14:23:49.834Z,99507.78
2023-02-03T14:26:27.994Z,99427.31
2023-02-03T14:29:09.919Z,99441.41
2023-02-03T14:32:05.258Z,99463.81
2023-02-03T14:34:49.900Z,99442.97
2023-02-03T14:37:21.915Z,99424.44
2023-02-03T14:40:22.090Z,99435.03
2023-02-03T14:43:24.226Z,99413.97
2023-02-03T14:46:23.354Z,99491.72
2023-02-03T14:49:34.093Z,99443.34
2023-02-03T14:52:39.068Z,99418.53
2023-02-03T14:55:40.077Z,99438.63
2023-02-03T14:58:25.787Z,99456.47
2023-02-03T15:00:55.559Z,99499.19
2023-02-03T15:03:32.728Z,99462.97
2023-02-03T15:06:03.858Z,99442.25
2023-02-03T15:08:55.207Z,99423.75
2023-02-03T15:11:36.587Z,99410.09
2023-02-03T15:14:25.815Z,99399.63
2023-02-03T15:17:04.998Z,99472.47
2023-02-03T15:19:39.874Z,99360.97
2023-02-03T15:22:21.402Z,99373.50
2023-02-03T15:24:54.872Z,99347.25
2023-02-03T15:27:34.656Z,99360.03
2023-02-03T15:30:19.058Z,99362.22
2023-02-03T15:32:53.704Z,99366.41
2023-02-03T15:35:26.214Z,99341.97
2023-02-03T15:37:58.039Z,99400.34
2023-02-03T15:40:38.316Z,99377.47
2023-02-03T15:43:17.078Z,99494.00
2023-02-03T15:46:06.304Z,99366.03
2023-02-03T15:48:39.440Z,99363.88
2023-02-03T15:51:18.825Z,99383.03
2023-02-03T15:54:05.009Z,99388.44
2023-02-03T15:56:41.307Z,99346.78
2023-02-03T15:59:26.144Z,99351.09
2023-02-03T16:01:58.150Z,99360.88
2023-02-03T16:04:30.511Z,99403.75
2023-02-03T16:07:18.605Z,99383.16
2023-02-03T16:09:49.142Z,99342.66
2023-02-03T16:12:27.903Z,99310.88
2023-02-03T16:14:59.712Z,99307.41
2023-02-03T16:17:31.850Z,99286.44
2023-02-03T16:20:31.579Z,99313.50
2023-02-03T16:23:24.311Z,99326.63
2023-02-03T16:26:18.004Z,99315.22
2023-02-03T16:29:28.152Z,99299.91
2023-02-03T16:32:18.583Z,99356.16
2023-02-03T16:35:07.376Z,99334.09
2023-02-03T16:38:08.903Z,99283.75
2023-02-03T16:41:13.823Z,99330.34
2023-02-03T16:44:01.186Z,99302.66
2023-02-03T16:46:48.790Z,99273.25
2023-02-03T16:49:36.229Z,99332.75
2023-02-03T16:52:13.990Z,99340.59
2023-02-03T16:54:45.288Z,99312.00
2023-02-03T16:57:17.708Z,99277.75
2023-02-03T16:59:52.011Z,99355.50
2023-02-03T17:02:23.630Z,99294.16
2023-02-03T17:04:56.157Z,99289.78
2023-02-03T17:07:25.841Z,99297.44
2023-02-03T17:09:55.166Z,99287.06
2023-02-03T17:12:51.181Z,99305.44
2023-02-03T17:15:21.578Z,99358.59
2023-02-03T17:17:59.173Z,99316.78
2023-02-03T17:20:38.847Z,99369.94
2023-02-03T17:23:18.410Z,99281.47
2023-02-03T17:25:57.774Z,99319.88
2023-02-03T17:28:41.874Z,99333.38
2023-02-03T17:31:17.641Z,99323.19
2023-02-03T17:33:54.228Z,99349.78
2023-02-03T17:36:25.657Z,99385.22
2023-02-03T17:55:49.647Z,99411.41
2023-02-03T17:58:43.148Z,99496.84
2023-02-03T18:01:22.470Z,99438.88
2023-02-03T18:03:57.221Z,99407.72
2023-02-03T18:06:36.037Z,99483.38
2023-02-03T18:09:16.669Z,99487.94
2023-02-03T18:11:52.771Z,99470.09
2023-02-03T18:14:28.336Z,99440.22
2023-02-03T18:17:11.075Z,99436.94
2023-02-03T18:19:46.612Z,99464.38
2023-02-03T18:22:21.198Z,99464.06
2023-02-03T18:24:56.594Z,99491.47
2023-02-03T18:27:29.193Z,99459.25
2023-02-03T18:30:07.566Z,99464.88
2023-02-03T18:32:50.510Z,99458.75
2023-02-03T18:35:29.638Z,99477.06
2023-02-03T18:38:08.140Z,99468.78
2023-02-03T18:40:44.959Z,99477.78
2023-02-03T18:43:19.619Z,99479.00
2023-02-03T18:46:02.461Z,99470.69
2023-02-03T18:48:37.016Z,99490.69
2023-02-03T18:51:20.325Z,99478.41
2023-02-03T18:53:53.668Z,99464.19
2023-02-03T18:56:28.962Z,99466.25
2023-02-03T18:59:12.057Z,99472.28
2023-02-03T19:01:43.983Z,99465.91
2023-02-03T19:04:37.027Z,99456.84
2023-02-03T19:07:16.385Z,99453.50
2023-02-03T19:09:48.308Z,99459.50
2023-02-03T19:12:19.632Z,99455.16
2023-02-03T19:14:52.958Z,99468.53
2023-02-03T19:17:27.498Z,99470.13
2023-02-03T19:20:18.186Z,99483.97
2023-02-03T19:22:49.342Z,99452.25
2023-02-03T19:25:24.675Z,99451.31
2023-02-03T19:28:17.468Z,99467.47
2023-02-03T19:30:59.993Z,99455.16
2023-02-03T19:33:42.258Z,99467.81
2023-02-03T19:36:31.549Z,99470.09
2023-02-03T19:39:11.575Z,99493.75
2023-02-03T19:41:52.646Z,99516.63
2023-02-03T19:44:30.360Z,99499.00
2023-02-03T19:47:11.202Z,99526.19
2023-02-03T19:49:42.354Z,99513.47
2023-02-03T19:52:39.594Z,99511.59
2023-02-03T19:55:12.897Z,99521.84
2023-02-03T19:57:50.407Z,99507.06
2023-02-03T20:00:28.488Z,99494.59
2023-02-03T20:02:59.444Z,99507.72
2023-02-03T20:05:44.401Z,99511.84
2023-02-03T20:08:17.848Z,99483.19
2023-02-03T20:11:00.308Z,99484.91
2023-02-03T20:13:32.835Z,99490.81
2023-02-03T20:16:09.887Z,99502.88
2023-02-03T20:18:44.580Z,99487.44
2023-02-03T20:21:31.470Z,99505.91
2023-02-03T20:24:08.675Z,99486.59
2023-02-03T20:26:51.805Z,99483.59
2023-02-03T20:29:36.028Z,99487.56
2023-02-03T20:32:18.258Z,99469.41
2023-02-03T20:35:13.479Z,99473.88
2023-02-03T20:37:48.349Z,99494.94
2023-02-03T20:40:35.448Z,99460.84
2023-02-03T20:43:23.565Z,99481.31
2023-02-03T20:46:33.224Z,99486.50
2023-02-03T20:49:26.123Z,99473.13
2023-02-03T20:52:02.565Z,99450.81
2023-02-03T20:54:44.346Z,99458.41
2023-02-03T20:57:27.349Z,99452.50
2023-02-03T21:00:01.646Z,99441.91
2023-02-03T21:02:57.514Z,99439.13
2023-02-03T21:05:29.338Z,99434.34
2023-02-03T21:08:13.578Z,99435.16
2023-02-03T21:10:53.840Z,99435.63
2023-02-03T21:13:30.694Z,99430.97
2023-02-03T21:16:19.921Z,99429.63
2023-02-03T21:18:57.185Z,99437.34
2023-02-03T21:21:38.846Z,99443.03
2023-02-03T21:24:30.636Z,99434.44
2023-02-03T21:27:14.213Z,99436.97
2023-02-03T21:29:48.944Z,99438.91
2023-02-03T21:32:22.634Z,99447.09
2023-02-03T21:34:54.750Z,99456.25
2023-02-03T21:37:41.911Z,99443.84
2023-02-03T21:40:26.756Z,99449.25
2023-02-03T21:43:01.290Z,99450.22
2023-02-03T21:45:42.532Z,99455.16
2023-02-03T21:48:33.801Z,99470.59
2023-02-03T21:51:17.636Z,99455.41
2023-02-03T21:54:06.890Z,99467.22
2023-02-03T21:56:40.892Z,99451.31
2023-02-03T21:59:18.838Z,99475.66
2023-02-03T22:01:54.015Z,99459.03
2023-02-03T22:04:25.977Z,99448.56
2023-02-03T22:07:13.408Z,99480.09
2023-02-03T22:09:54.555Z,99456.88
2023-02-03T22:12:28.039Z,99465.28
2023-02-03T22:15:09.316Z,99471.41
2023-02-03T22:17:52.943Z,99532.06
2023-02-03T22:20:22.039Z,99484.06
2023-02-03T22:22:55.926Z,99471.53
2023-02-03T22:25:27.195Z,99477.09
2023-02-03T22:27:58.839Z,99474.91
2023-02-03T22:30:36.090Z,99485.03
2023-02-03T22:33:07.822Z,99495.53
2023-02-03T22:35:39.275Z,99500.34
2023-02-03T22:38:08.215Z,99508.06
2023-02-03T22:40:37.892Z,99520.00
2023-02-03T22:43:08.677Z,99508.16
2023-02-03T22:45:38.188Z,99515.41
2023-02-03T22:48:24.882Z,99516.75
2023-02-03T22:50:55.542Z,99525.91
2023-02-03T22:53:29.894Z,99510.47
2023-02-03T22:55:58.979Z,99514.09
2023-02-03T22:58:36.803Z,99498.41
2023-02-03T23:01:15.389Z,99503.50
2023-02-03T23:03:48.509Z,99516.84
2023-02-03T23:06:20.190Z,99504.22
2023-02-03T23:08:49.558Z,99501.19
2023-02-03T23:11:25.186Z,99524.09
2023-02-03T23:14:08.943Z,99542.75
2023-02-03T23:16:43.762Z,99526.00
2023-02-03T23:19:30.984Z,99519.38
2023-02-03T23:22:02.823Z,99525.28
2023-02-03T23:24:34.412Z,99520.09
2023-02-03T23:27:11.667Z,99541.91
2023-02-03T23:29:43.551Z,99521.53
2023-02-03T23:32:16.972Z,99522.88
2023-02-03T23:35:13.543Z,99525.66
2023-02-03T23:37:44.273Z,99518.53
2023-02-03T23:40:21.259Z,99531.75
2023-02-03T23:42:50.353Z,99529.72
2023-02-03T23:45:22.125Z,99548.69
2023-02-03T23:47:53.169Z,99541.22
2023-02-03T23:50:34.546Z,99544.69
2023-02-03T23:53:05.934Z,99512.75
2023-02-03T23:55:36.804Z,99543.00
2023-02-03T23:58:11.348Z,99536.97
